sensor_id;sensor_type;location;lat;lon;timestamp;P1;durP1;ratioP1;P2;durP2;ratioP2
10761;SDS011;5433;50.862;4.320;2022-07-24T00:00:29;31.77;;;26.25;;
10761;SDS011;5433;50.862;4.320;2022-07-24T00:02:55;28.88;;;25.92;;
10761;SDS011;5433;50.862;4.320;2022-07-24T00:05:21;32.17;;;26.55;;
10761;SDS011;5433;50.862;4.320;2022-07-24T00:07:47;32.08;;;28.73;;
10761;SDS011;5433;50.862;4.320;2022-07-24T00:10:13;31.67;;;28.23;;
10761;SDS011;5433;50.862;4.320;2022-07-24T00:12:40;32.97;;;29.02;;
10761;SDS011;5433;50.862;4.320;2022-07-24T00:15:07;33.33;;;29.70;;
10761;SDS011;5433;50.862;4.320;2022-07-24T00:17:33;32.50;;;29.02;;
10761;SDS011;5433;50.862;4.320;2022-07-24T00:20:02;31.17;;;27.88;;
10761;SDS011;5433;50.862;4.320;2022-07-24T00:22:28;31.65;;;28.33;;
10761;SDS011;5433;50.862;4.320;2022-07-24T00:24:55;33.08;;;29.52;;
10761;SDS011;5433;50.862;4.320;2022-07-24T00:27:21;31.90;;;28.50;;
10761;SDS011;5433;50.862;4.320;2022-07-24T00:29:47;33.95;;;29.52;;
10761;SDS011;5433;50.862;4.320;2022-07-24T00:32:13;33.35;;;29.02;;
10761;SDS011;5433;50.862;4.320;2022-07-24T00:34:40;33.58;;;29.90;;
10761;SDS011;5433;50.862;4.320;2022-07-24T00:37:06;33.30;;;29.75;;
10761;SDS011;5433;50.862;4.320;2022-07-24T00:39:32;34.67;;;29.63;;
10761;SDS011;5433;50.862;4.320;2022-07-24T00:41:58;33.83;;;29.52;;
10761;SDS011;5433;50.862;4.320;2022-07-24T00:44:25;34.95;;;31.13;;
10761;SDS011;5433;50.862;4.320;2022-07-24T00:46:51;34.38;;;30.58;;
10761;SDS011;5433;50.862;4.320;2022-07-24T00:49:17;33.35;;;29.77;;
10761;SDS011;5433;50.862;4.320;2022-07-24T00:51:45;32.50;;;29.00;;
10761;SDS011;5433;50.862;4.320;2022-07-24T00:54:11;32.15;;;28.75;;
10761;SDS011;5433;50.862;4.320;2022-07-24T00:56:39;32.08;;;28.77;;
10761;SDS011;5433;50.862;4.320;2022-07-24T00:59:06;31.85;;;26.95;;
10761;SDS011;5433;50.862;4.320;2022-07-24T01:01:32;30.45;;;27.25;;
10761;SDS011;5433;50.862;4.320;2022-07-24T01:03:59;29.38;;;26.40;;
10761;SDS011;5433;50.862;4.320;2022-07-24T01:06:25;29.85;;;26.70;;
10761;SDS011;5433;50.862;4.320;2022-07-24T01:08:51;29.80;;;26.83;;
10761;SDS011;5433;50.862;4.320;2022-07-24T01:11:18;29.70;;;26.50;;
10761;SDS011;5433;50.862;4.320;2022-07-24T01:13:45;28.80;;;25.73;;
10761;SDS011;5433;50.862;4.320;2022-07-24T01:16:12;30.33;;;27.13;;
10761;SDS011;5433;50.862;4.320;2022-07-24T01:18:38;29.08;;;25.70;;
10761;SDS011;5433;50.862;4.320;2022-07-24T01:21:04;28.33;;;25.23;;
10761;SDS011;5433;50.862;4.320;2022-07-24T01:23:30;27.83;;;24.92;;
10761;SDS011;5433;50.862;4.320;2022-07-24T01:25:56;28.80;;;25.05;;
10761;SDS011;5433;50.862;4.320;2022-07-24T01:28:23;27.25;;;24.30;;
10761;SDS011;5433;50.862;4.320;2022-07-24T01:30:49;24.55;;;21.98;;
10761;SDS011;5433;50.862;4.320;2022-07-24T01:33:15;24.13;;;21.63;;
10761;SDS011;5433;50.862;4.320;2022-07-24T01:35:41;23.92;;;21.08;;
10761;SDS011;5433;50.862;4.320;2022-07-24T01:38:08;22.15;;;19.85;;
10761;SDS011;5433;50.862;4.320;2022-07-24T01:40:35;21.77;;;19.48;;
10761;SDS011;5433;50.862;4.320;2022-07-24T01:43:02;20.52;;;18.33;;
10761;SDS011;5433;50.862;4.320;2022-07-24T01:45:28;21.23;;;19.05;;
10761;SDS011;5433;50.862;4.320;2022-07-24T01:47:55;20.17;;;17.90;;
10761;SDS011;5433;50.862;4.320;2022-07-24T01:50:21;19.70;;;17.17;;
10761;SDS011;5433;50.862;4.320;2022-07-24T01:52:47;18.23;;;16.23;;
10761;SDS011;5433;50.862;4.320;2022-07-24T01:55:14;20.40;;;17.17;;
10761;SDS011;5433;50.862;4.320;2022-07-24T01:57:40;20.40;;;17.15;;
10761;SDS011;5433;50.862;4.320;2022-07-24T02:00:07;18.85;;;16.85;;
10761;SDS011;5433;50.862;4.320;2022-07-24T02:02:37;22.60;;;18.15;;
10761;SDS011;5433;50.862;4.320;2022-07-24T02:05:03;25.10;;;21.95;;
10761;SDS011;5433;50.862;4.320;2022-07-24T02:07:29;26.17;;;23.23;;
10761;SDS011;5433;50.862;4.320;2022-07-24T02:09:55;26.15;;;21.77;;
10761;SDS011;5433;50.862;4.320;2022-07-24T02:12:21;26.38;;;22.75;;
10761;SDS011;5433;50.862;4.320;2022-07-24T02:14:47;26.35;;;23.17;;
10761;SDS011;5433;50.862;4.320;2022-07-24T02:17:16;25.48;;;22.67;;
10761;SDS011;5433;50.862;4.320;2022-07-24T02:19:45;23.73;;;21.20;;
10761;SDS011;5433;50.862;4.320;2022-07-24T02:22:11;23.30;;;20.40;;
10761;SDS011;5433;50.862;4.320;2022-07-24T02:24:37;22.45;;;19.75;;
10761;SDS011;5433;50.862;4.320;2022-07-24T02:27:06;24.13;;;21.38;;
10761;SDS011;5433;50.862;4.320;2022-07-24T02:29:33;25.50;;;22.60;;
10761;SDS011;5433;50.862;4.320;2022-07-24T02:31:59;25.50;;;22.80;;
10761;SDS011;5433;50.862;4.320;2022-07-24T02:34:27;27.35;;;24.42;;
10761;SDS011;5433;50.862;4.320;2022-07-24T02:36:53;27.77;;;24.20;;
10761;SDS011;5433;50.862;4.320;2022-07-24T02:39:19;28.05;;;24.80;;
10761;SDS011;5433;50.862;4.320;2022-07-24T02:41:46;26.40;;;23.70;;
10761;SDS011;5433;50.862;4.320;2022-07-24T02:44:12;27.73;;;24.75;;
10761;SDS011;5433;50.862;4.320;2022-07-24T02:46:38;26.27;;;23.08;;
10761;SDS011;5433;50.862;4.320;2022-07-24T02:49:04;26.20;;;23.48;;
10761;SDS011;5433;50.862;4.320;2022-07-24T02:51:30;26.95;;;24.00;;
10761;SDS011;5433;50.862;4.320;2022-07-24T02:53:56;26.88;;;23.98;;
10761;SDS011;5433;50.862;4.320;2022-07-24T02:56:23;27.55;;;24.13;;
10761;SDS011;5433;50.862;4.320;2022-07-24T02:58:49;28.67;;;24.10;;
10761;SDS011;5433;50.862;4.320;2022-07-24T03:01:20;28.27;;;25.23;;
10761;SDS011;5433;50.862;4.320;2022-07-24T03:03:46;29.38;;;24.70;;
10761;SDS011;5433;50.862;4.320;2022-07-24T03:06:15;26.58;;;23.83;;
10761;SDS011;5433;50.862;4.320;2022-07-24T03:08:41;27.30;;;23.52;;
10761;SDS011;5433;50.862;4.320;2022-07-24T03:11:07;26.88;;;23.63;;
10761;SDS011;5433;50.862;4.320;2022-07-24T03:13:33;27.65;;;23.98;;
10761;SDS011;5433;50.862;4.320;2022-07-24T03:15:59;29.33;;;24.27;;
10761;SDS011;5433;50.862;4.320;2022-07-24T03:18:26;28.42;;;24.70;;
10761;SDS011;5433;50.862;4.320;2022-07-24T03:20:52;27.15;;;24.27;;
10761;SDS011;5433;50.862;4.320;2022-07-24T03:23:18;26.75;;;24.05;;
10761;SDS011;5433;50.862;4.320;2022-07-24T03:25:44;27.08;;;24.17;;
10761;SDS011;5433;50.862;4.320;2022-07-24T03:28:11;26.15;;;23.35;;
10761;SDS011;5433;50.862;4.320;2022-07-24T03:30:37;25.35;;;22.65;;
10761;SDS011;5433;50.862;4.320;2022-07-24T03:33:04;26.17;;;23.35;;
10761;SDS011;5433;50.862;4.320;2022-07-24T03:35:30;26.60;;;23.38;;
10761;SDS011;5433;50.862;4.320;2022-07-24T03:37:58;26.05;;;22.10;;
10761;SDS011;5433;50.862;4.320;2022-07-24T03:40:27;25.25;;;21.73;;
10761;SDS011;5433;50.862;4.320;2022-07-24T03:42:53;26.02;;;21.90;;
10761;SDS011;5433;50.862;4.320;2022-07-24T03:45:19;24.50;;;21.92;;
10761;SDS011;5433;50.862;4.320;2022-07-24T03:47:45;23.35;;;20.85;;
10761;SDS011;5433;50.862;4.320;2022-07-24T03:50:11;24.60;;;21.98;;
10761;SDS011;5433;50.862;4.320;2022-07-24T03:52:37;24.85;;;21.63;;
10761;SDS011;5433;50.862;4.320;2022-07-24T03:55:04;27.13;;;23.17;;
10761;SDS011;5433;50.862;4.320;2022-07-24T03:57:30;24.35;;;21.25;;
10761;SDS011;5433;50.862;4.320;2022-07-24T03:59:56;25.85;;;21.38;;
10761;SDS011;5433;50.862;4.320;2022-07-24T04:02:22;24.35;;;20.20;;
10761;SDS011;5433;50.862;4.320;2022-07-24T04:04:48;24.00;;;19.88;;
10761;SDS011;5433;50.862;4.320;2022-07-24T04:07:18;21.73;;;19.42;;
10761;SDS011;5433;50.862;4.320;2022-07-24T04:09:44;22.48;;;20.02;;
10761;SDS011;5433;50.862;4.320;2022-07-24T04:12:10;23.48;;;20.35;;
10761;SDS011;5433;50.862;4.320;2022-07-24T04:14:39;23.85;;;19.38;;
10761;SDS011;5433;50.862;4.320;2022-07-24T04:17:05;22.55;;;18.70;;
10761;SDS011;5433;50.862;4.320;2022-07-24T04:19:31;22.38;;;19.98;;
10761;SDS011;5433;50.862;4.320;2022-07-24T04:21:57;22.00;;;19.35;;
10761;SDS011;5433;50.862;4.320;2022-07-24T04:24:23;22.52;;;19.80;;
10761;SDS011;5433;50.862;4.320;2022-07-24T04:26:50;23.23;;;20.67;;
10761;SDS011;5433;50.862;4.320;2022-07-24T04:29:16;23.38;;;20.63;;
10761;SDS011;5433;50.862;4.320;2022-07-24T04:31:42;24.00;;;20.55;;
10761;SDS011;5433;50.862;4.320;2022-07-24T04:34:10;23.20;;;19.52;;
10761;SDS011;5433;50.862;4.320;2022-07-24T04:36:36;23.27;;;19.10;;
10761;SDS011;5433;50.862;4.320;2022-07-24T04:39:02;25.00;;;18.90;;
10761;SDS011;5433;50.862;4.320;2022-07-24T04:41:28;22.65;;;19.33;;
10761;SDS011;5433;50.862;4.320;2022-07-24T04:43:55;22.45;;;19.40;;
10761;SDS011;5433;50.862;4.320;2022-07-24T04:46:21;20.80;;;18.60;;
10761;SDS011;5433;50.862;4.320;2022-07-24T04:48:47;20.10;;;17.75;;
10761;SDS011;5433;50.862;4.320;2022-07-24T04:51:13;19.80;;;17.10;;
10761;SDS011;5433;50.862;4.320;2022-07-24T04:53:39;19.00;;;16.00;;
10761;SDS011;5433;50.862;4.320;2022-07-24T04:56:05;17.42;;;15.60;;
10761;SDS011;5433;50.862;4.320;2022-07-24T04:58:32;17.27;;;15.45;;
10761;SDS011;5433;50.862;4.320;2022-07-24T05:00:58;18.13;;;15.65;;
10761;SDS011;5433;50.862;4.320;2022-07-24T05:03:25;16.75;;;15.02;;
10761;SDS011;5433;50.862;4.320;2022-07-24T05:05:51;16.90;;;14.82;;
10761;SDS011;5433;50.862;4.320;2022-07-24T05:08:17;16.27;;;14.38;;
10761;SDS011;5433;50.862;4.320;2022-07-24T05:10:43;17.83;;;15.00;;
10761;SDS011;5433;50.862;4.320;2022-07-24T05:13:09;17.48;;;14.82;;
10761;SDS011;5433;50.862;4.320;2022-07-24T05:15:36;18.38;;;14.25;;
10761;SDS011;5433;50.862;4.320;2022-07-24T05:18:02;15.85;;;14.00;;
10761;SDS011;5433;50.862;4.320;2022-07-24T05:20:28;15.25;;;13.65;;
10761;SDS011;5433;50.862;4.320;2022-07-24T05:22:54;15.75;;;14.00;;
10761;SDS011;5433;50.862;4.320;2022-07-24T05:25:21;16.83;;;14.23;;
10761;SDS011;5433;50.862;4.320;2022-07-24T05:27:47;15.27;;;13.68;;
10761;SDS011;5433;50.862;4.320;2022-07-24T05:30:13;16.40;;;14.35;;
10761;SDS011;5433;50.862;4.320;2022-07-24T05:32:39;15.02;;;13.55;;
10761;SDS011;5433;50.862;4.320;2022-07-24T05:35:05;16.30;;;14.57;;
10761;SDS011;5433;50.862;4.320;2022-07-24T05:37:32;21.77;;;15.88;;
10761;SDS011;5433;50.862;4.320;2022-07-24T05:39:58;22.48;;;16.27;;
10761;SDS011;5433;50.862;4.320;2022-07-24T05:42:24;20.55;;;16.08;;
10761;SDS011;5433;50.862;4.320;2022-07-24T05:44:50;22.30;;;15.98;;
10761;SDS011;5433;50.862;4.320;2022-07-24T05:47:16;17.15;;;14.38;;
10761;SDS011;5433;50.862;4.320;2022-07-24T05:49:42;18.30;;;15.30;;
10761;SDS011;5433;50.862;4.320;2022-07-24T05:52:10;15.85;;;14.05;;
10761;SDS011;5433;50.862;4.320;2022-07-24T05:54:37;17.67;;;13.70;;
10761;SDS011;5433;50.862;4.320;2022-07-24T05:57:03;16.60;;;12.90;;
10761;SDS011;5433;50.862;4.320;2022-07-24T05:59:29;18.65;;;13.70;;
10761;SDS011;5433;50.862;4.320;2022-07-24T06:01:55;14.95;;;12.25;;
10761;SDS011;5433;50.862;4.320;2022-07-24T06:04:21;14.00;;;12.00;;
10761;SDS011;5433;50.862;4.320;2022-07-24T06:06:47;16.02;;;11.48;;
10761;SDS011;5433;50.862;4.320;2022-07-24T06:09:13;13.50;;;11.88;;
10761;SDS011;5433;50.862;4.320;2022-07-24T06:11:39;12.45;;;11.18;;
10761;SDS011;5433;50.862;4.320;2022-07-24T06:14:05;13.20;;;10.82;;
10761;SDS011;5433;50.862;4.320;2022-07-24T06:16:31;11.68;;;10.40;;
10761;SDS011;5433;50.862;4.320;2022-07-24T06:18:58;13.52;;;10.40;;
10761;SDS011;5433;50.862;4.320;2022-07-24T06:21:24;12.48;;;10.52;;
10761;SDS011;5433;50.862;4.320;2022-07-24T06:23:51;11.23;;;9.25;;
10761;SDS011;5433;50.862;4.320;2022-07-24T06:26:17;12.07;;;10.00;;
10761;SDS011;5433;50.862;4.320;2022-07-24T06:28:44;11.30;;;9.35;;
10761;SDS011;5433;50.862;4.320;2022-07-24T06:31:13;10.73;;;9.20;;
10761;SDS011;5433;50.862;4.320;2022-07-24T06:33:39;13.70;;;8.88;;
10761;SDS011;5433;50.862;4.320;2022-07-24T06:36:05;10.30;;;8.70;;
10761;SDS011;5433;50.862;4.320;2022-07-24T06:38:31;11.18;;;8.10;;
10761;SDS011;5433;50.862;4.320;2022-07-24T06:41:00;10.45;;;8.07;;
10761;SDS011;5433;50.862;4.320;2022-07-24T06:43:26;8.98;;;7.70;;
10761;SDS011;5433;50.862;4.320;2022-07-24T06:45:52;10.10;;;7.88;;
10761;SDS011;5433;50.862;4.320;2022-07-24T06:48:18;9.32;;;6.78;;
10761;SDS011;5433;50.862;4.320;2022-07-24T06:50:44;7.63;;;6.90;;
10761;SDS011;5433;50.862;4.320;2022-07-24T06:53:11;9.52;;;7.15;;
10761;SDS011;5433;50.862;4.320;2022-07-24T06:55:37;8.70;;;6.65;;
10761;SDS011;5433;50.862;4.320;2022-07-24T06:58:03;7.97;;;6.40;;
10761;SDS011;5433;50.862;4.320;2022-07-24T07:00:29;8.57;;;6.47;;
10761;SDS011;5433;50.862;4.320;2022-07-24T07:02:55;8.27;;;5.45;;
10761;SDS011;5433;50.862;4.320;2022-07-24T07:05:21;7.55;;;5.88;;
10761;SDS011;5433;50.862;4.320;2022-07-24T07:07:49;6.40;;;5.50;;
10761;SDS011;5433;50.862;4.320;2022-07-24T07:10:15;7.30;;;5.00;;
10761;SDS011;5433;50.862;4.320;2022-07-24T07:12:41;6.20;;;5.30;;
10761;SDS011;5433;50.862;4.320;2022-07-24T07:15:08;7.45;;;5.53;;
10761;SDS011;5433;50.862;4.320;2022-07-24T07:17:36;8.48;;;5.13;;
10761;SDS011;5433;50.862;4.320;2022-07-24T07:20:03;6.40;;;4.70;;
10761;SDS011;5433;50.862;4.320;2022-07-24T07:22:29;5.10;;;4.10;;
10761;SDS011;5433;50.862;4.320;2022-07-24T07:24:56;5.22;;;4.10;;
10761;SDS011;5433;50.862;4.320;2022-07-24T07:27:22;6.20;;;4.10;;
10761;SDS011;5433;50.862;4.320;2022-07-24T07:29:48;5.80;;;3.80;;
10761;SDS011;5433;50.862;4.320;2022-07-24T07:32:16;4.25;;;3.47;;
10761;SDS011;5433;50.862;4.320;2022-07-24T07:34:42;3.58;;;3.20;;
10761;SDS011;5433;50.862;4.320;2022-07-24T07:37:08;4.00;;;3.30;;
10761;SDS011;5433;50.862;4.320;2022-07-24T07:39:37;3.83;;;3.45;;
10761;SDS011;5433;50.862;4.320;2022-07-24T07:42:06;5.20;;;3.55;;
10761;SDS011;5433;50.862;4.320;2022-07-24T07:44:32;4.80;;;3.22;;
10761;SDS011;5433;50.862;4.320;2022-07-24T07:46:59;4.28;;;3.30;;
10761;SDS011;5433;50.862;4.320;2022-07-24T07:49:25;5.25;;;3.17;;
10761;SDS011;5433;50.862;4.320;2022-07-24T07:51:51;5.03;;;3.50;;
10761;SDS011;5433;50.862;4.320;2022-07-24T07:54:17;4.97;;;3.40;;
10761;SDS011;5433;50.862;4.320;2022-07-24T07:56:46;3.50;;;2.97;;
10761;SDS011;5433;50.862;4.320;2022-07-24T07:59:13;3.50;;;3.10;;
10761;SDS011;5433;50.862;4.320;2022-07-24T08:01:39;3.38;;;2.90;;
10761;SDS011;5433;50.862;4.320;2022-07-24T08:04:05;3.53;;;3.17;;
10761;SDS011;5433;50.862;4.320;2022-07-24T08:06:32;4.70;;;2.95;;
10761;SDS011;5433;50.862;4.320;2022-07-24T08:08:58;4.75;;;3.25;;
10761;SDS011;5433;50.862;4.320;2022-07-24T08:11:24;4.47;;;2.85;;
10761;SDS011;5433;50.862;4.320;2022-07-24T08:13:53;4.13;;;2.97;;
10761;SDS011;5433;50.862;4.320;2022-07-24T08:16:19;4.82;;;3.28;;
10761;SDS011;5433;50.862;4.320;2022-07-24T08:18:46;3.03;;;2.70;;
10761;SDS011;5433;50.862;4.320;2022-07-24T08:21:12;3.30;;;2.90;;
10761;SDS011;5433;50.862;4.320;2022-07-24T08:23:40;4.45;;;2.80;;
10761;SDS011;5433;50.862;4.320;2022-07-24T08:26:06;3.17;;;2.60;;
10761;SDS011;5433;50.862;4.320;2022-07-24T08:28:32;4.65;;;2.88;;
10761;SDS011;5433;50.862;4.320;2022-07-24T08:30:59;3.58;;;2.65;;
10761;SDS011;5433;50.862;4.320;2022-07-24T08:33:25;3.50;;;2.90;;
10761;SDS011;5433;50.862;4.320;2022-07-24T08:35:51;2.92;;;2.63;;
10761;SDS011;5433;50.862;4.320;2022-07-24T08:38:17;3.13;;;2.60;;
10761;SDS011;5433;50.862;4.320;2022-07-24T08:40:45;3.97;;;2.90;;
10761;SDS011;5433;50.862;4.320;2022-07-24T08:43:11;3.92;;;2.90;;
10761;SDS011;5433;50.862;4.320;2022-07-24T08:45:40;2.88;;;2.22;;
10761;SDS011;5433;50.862;4.320;2022-07-24T08:48:10;3.55;;;2.30;;
10761;SDS011;5433;50.862;4.320;2022-07-24T08:50:38;2.30;;;2.10;;
10761;SDS011;5433;50.862;4.320;2022-07-24T08:53:04;3.17;;;2.30;;
10761;SDS011;5433;50.862;4.320;2022-07-24T08:55:31;2.25;;;2.05;;
10761;SDS011;5433;50.862;4.320;2022-07-24T08:57:58;3.45;;;2.10;;
10761;SDS011;5433;50.862;4.320;2022-07-24T09:00:31;2.50;;;2.30;;
10761;SDS011;5433;50.862;4.320;2022-07-24T09:02:57;2.45;;;2.25;;
10761;SDS011;5433;50.862;4.320;2022-07-24T09:05:23;3.80;;;2.22;;
10761;SDS011;5433;50.862;4.320;2022-07-24T09:07:50;3.88;;;2.35;;
10761;SDS011;5433;50.862;4.320;2022-07-24T09:10:16;3.70;;;2.38;;
10761;SDS011;5433;50.862;4.320;2022-07-24T09:12:43;3.58;;;2.67;;
10761;SDS011;5433;50.862;4.320;2022-07-24T09:15:18;3.35;;;2.10;;
10761;SDS011;5433;50.862;4.320;2022-07-24T09:17:50;2.22;;;2.10;;
10761;SDS011;5433;50.862;4.320;2022-07-24T09:20:17;3.67;;;2.38;;
10761;SDS011;5433;50.862;4.320;2022-07-24T09:22:44;3.65;;;2.40;;
10761;SDS011;5433;50.862;4.320;2022-07-24T09:25:25;2.15;;;2.00;;
10761;SDS011;5433;50.862;4.320;2022-07-24T09:28:03;3.30;;;2.33;;
10761;SDS011;5433;50.862;4.320;2022-07-24T09:30:33;2.67;;;2.28;;
10761;SDS011;5433;50.862;4.320;2022-07-24T09:35:39;3.20;;;1.98;;
10761;SDS011;5433;50.862;4.320;2022-07-24T09:38:06;2.30;;;2.10;;
10761;SDS011;5433;50.862;4.320;2022-07-24T09:40:36;2.90;;;2.05;;
10761;SDS011;5433;50.862;4.320;2022-07-24T09:43:16;2.42;;;1.88;;
10761;SDS011;5433;50.862;4.320;2022-07-24T09:46:02;2.58;;;2.15;;
10761;SDS011;5433;50.862;4.320;2022-07-24T09:48:36;2.33;;;1.98;;
10761;SDS011;5433;50.862;4.320;2022-07-24T09:51:04;2.20;;;2.00;;
10761;SDS011;5433;50.862;4.320;2022-07-24T09:53:32;2.63;;;1.90;;
10761;SDS011;5433;50.862;4.320;2022-07-24T09:56:00;2.92;;;1.88;;
10761;SDS011;5433;50.862;4.320;2022-07-24T09:58:27;3.05;;;2.22;;
10761;SDS011;5433;50.862;4.320;2022-07-24T10:00:57;2.40;;;1.85;;
10761;SDS011;5433;50.862;4.320;2022-07-24T10:03:25;2.15;;;2.03;;
10761;SDS011;5433;50.862;4.320;2022-07-24T10:05:53;2.00;;;1.83;;
10761;SDS011;5433;50.862;4.320;2022-07-24T10:08:19;2.03;;;1.83;;
10761;SDS011;5433;50.862;4.320;2022-07-24T10:10:46;2.20;;;2.00;;
10761;SDS011;5433;50.862;4.320;2022-07-24T10:13:16;3.85;;;3.08;;
10761;SDS011;5433;50.862;4.320;2022-07-24T10:15:52;2.00;;;1.80;;
10761;SDS011;5433;50.862;4.320;2022-07-24T10:18:24;2.25;;;2.05;;
10761;SDS011;5433;50.862;4.320;2022-07-24T10:20:56;2.10;;;1.90;;
10761;SDS011;5433;50.862;4.320;2022-07-24T10:23:31;1.88;;;1.77;;
10761;SDS011;5433;50.862;4.320;2022-07-24T10:26:04;3.15;;;1.90;;
10761;SDS011;5433;50.862;4.320;2022-07-24T10:28:38;3.45;;;2.15;;
10761;SDS011;5433;50.862;4.320;2022-07-24T10:31:05;3.30;;;1.92;;
10761;SDS011;5433;50.862;4.320;2022-07-24T10:33:34;2.10;;;1.90;;
10761;SDS011;5433;50.862;4.320;2022-07-24T10:36:02;4.18;;;1.88;;
10761;SDS011;5433;50.862;4.320;2022-07-24T10:38:30;3.13;;;2.08;;
10761;SDS011;5433;50.862;4.320;2022-07-24T10:41:02;3.47;;;2.20;;
10761;SDS011;5433;50.862;4.320;2022-07-24T10:43:30;2.30;;;2.10;;
10761;SDS011;5433;50.862;4.320;2022-07-24T10:53:24;3.00;;;1.98;;
10761;SDS011;5433;50.862;4.320;2022-07-24T10:55:51;2.20;;;2.00;;
10761;SDS011;5433;50.862;4.320;2022-07-24T10:58:17;2.10;;;1.88;;
10761;SDS011;5433;50.862;4.320;2022-07-24T11:00:46;2.00;;;1.80;;
10761;SDS011;5433;50.862;4.320;2022-07-24T11:03:23;5.82;;;2.08;;
10761;SDS011;5433;50.862;4.320;2022-07-24T11:06:02;3.40;;;2.15;;
10761;SDS011;5433;50.862;4.320;2022-07-24T11:08:29;4.15;;;2.30;;
10761;SDS011;5433;50.862;4.320;2022-07-24T11:10:57;2.67;;;2.22;;
10761;SDS011;5433;50.862;4.320;2022-07-24T11:16:31;3.25;;;2.17;;
10761;SDS011;5433;50.862;4.320;2022-07-24T11:21:35;3.08;;;2.25;;
10761;SDS011;5433;50.862;4.320;2022-07-24T11:32:11;2.85;;;2.65;;
10761;SDS011;5433;50.862;4.320;2022-07-24T11:34:36;2.35;;;2.15;;
10761;SDS011;5433;50.862;4.320;2022-07-24T11:37:03;3.00;;;2.40;;
10761;SDS011;5433;50.862;4.320;2022-07-24T11:39:34;2.50;;;2.30;;
10761;SDS011;5433;50.862;4.320;2022-07-24T11:42:07;2.72;;;2.53;;
10761;SDS011;5433;50.862;4.320;2022-07-24T11:44:36;3.15;;;2.50;;
10761;SDS011;5433;50.862;4.320;2022-07-24T11:47:12;2.65;;;2.45;;
10761;SDS011;5433;50.862;4.320;2022-07-24T11:49:41;2.85;;;2.47;;
10761;SDS011;5433;50.862;4.320;2022-07-24T11:52:08;2.78;;;2.53;;
10761;SDS011;5433;50.862;4.320;2022-07-24T11:54:39;3.75;;;2.63;;
10761;SDS011;5433;50.862;4.320;2022-07-24T11:57:05;2.63;;;2.42;;
10761;SDS011;5433;50.862;4.320;2022-07-24T11:59:41;2.80;;;2.60;;
10761;SDS011;5433;50.862;4.320;2022-07-24T12:04:40;2.92;;;2.50;;
10761;SDS011;5433;50.862;4.320;2022-07-24T12:07:12;2.70;;;2.50;;
10761;SDS011;5433;50.862;4.320;2022-07-24T12:09:52;3.00;;;2.60;;
10761;SDS011;5433;50.862;4.320;2022-07-24T12:12:21;2.90;;;2.70;;
10761;SDS011;5433;50.862;4.320;2022-07-24T12:14:48;3.50;;;2.60;;
10761;SDS011;5433;50.862;4.320;2022-07-24T12:17:14;4.82;;;2.88;;
10761;SDS011;5433;50.862;4.320;2022-07-24T12:19:43;3.80;;;2.83;;
10761;SDS011;5433;50.862;4.320;2022-07-24T12:22:18;2.80;;;2.60;;
10761;SDS011;5433;50.862;4.320;2022-07-24T12:24:44;3.05;;;2.83;;
10761;SDS011;5433;50.862;4.320;2022-07-24T12:27:10;3.20;;;2.70;;
10761;SDS011;5433;50.862;4.320;2022-07-24T12:29:43;4.20;;;3.10;;
10761;SDS011;5433;50.862;4.320;2022-07-24T12:32:16;3.80;;;3.17;;
10761;SDS011;5433;50.862;4.320;2022-07-24T12:34:46;3.13;;;2.58;;
10761;SDS011;5433;50.862;4.320;2022-07-24T12:37:23;3.05;;;2.70;;
10761;SDS011;5433;50.862;4.320;2022-07-24T12:39:51;3.13;;;2.72;;
10761;SDS011;5433;50.862;4.320;2022-07-24T12:42:17;4.00;;;3.00;;
10761;SDS011;5433;50.862;4.320;2022-07-24T12:44:44;3.45;;;3.00;;
10761;SDS011;5433;50.862;4.320;2022-07-24T12:47:11;3.63;;;3.33;;
10761;SDS011;5433;50.862;4.320;2022-07-24T12:49:41;3.63;;;3.10;;
10761;SDS011;5433;50.862;4.320;2022-07-24T12:52:18;3.20;;;2.90;;
10761;SDS011;5433;50.862;4.320;2022-07-24T12:54:46;3.25;;;2.80;;
10761;SDS011;5433;50.862;4.320;2022-07-24T12:57:13;3.35;;;2.90;;
10761;SDS011;5433;50.862;4.320;2022-07-24T12:59:40;3.20;;;2.70;;
10761;SDS011;5433;50.862;4.320;2022-07-24T13:02:23;3.25;;;2.65;;
10761;SDS011;5433;50.862;4.320;2022-07-24T13:04:51;3.05;;;2.70;;
10761;SDS011;5433;50.862;4.320;2022-07-24T13:07:18;2.95;;;2.60;;
10761;SDS011;5433;50.862;4.320;2022-07-24T13:09:44;2.72;;;2.50;;
10761;SDS011;5433;50.862;4.320;2022-07-24T13:12:11;2.60;;;2.38;;
10761;SDS011;5433;50.862;4.320;2022-07-24T13:14:37;3.35;;;2.88;;
10761;SDS011;5433;50.862;4.320;2022-07-24T13:17:05;3.28;;;2.63;;
10761;SDS011;5433;50.862;4.320;2022-07-24T13:19:34;5.38;;;2.72;;
10761;SDS011;5433;50.862;4.320;2022-07-24T13:22:03;3.25;;;2.58;;
10761;SDS011;5433;50.862;4.320;2022-07-24T13:24:29;2.83;;;2.63;;
10761;SDS011;5433;50.862;4.320;2022-07-24T13:26:55;3.15;;;2.50;;
10761;SDS011;5433;50.862;4.320;2022-07-24T13:29:22;2.60;;;2.40;;
10761;SDS011;5433;50.862;4.320;2022-07-24T13:31:49;2.60;;;2.40;;
10761;SDS011;5433;50.862;4.320;2022-07-24T13:34:15;3.10;;;2.90;;
10761;SDS011;5433;50.862;4.320;2022-07-24T13:36:44;3.00;;;2.80;;
10761;SDS011;5433;50.862;4.320;2022-07-24T13:39:13;2.95;;;2.65;;
10761;SDS011;5433;50.862;4.320;2022-07-24T13:41:39;3.20;;;2.90;;
10761;SDS011;5433;50.862;4.320;2022-07-24T13:44:06;3.28;;;3.08;;
10761;SDS011;5433;50.862;4.320;2022-07-24T13:46:35;4.35;;;3.03;;
10761;SDS011;5433;50.862;4.320;2022-07-24T13:49:01;3.13;;;2.83;;
10761;SDS011;5433;50.862;4.320;2022-07-24T13:51:28;3.50;;;3.20;;
10761;SDS011;5433;50.862;4.320;2022-07-24T13:53:54;3.08;;;2.80;;
10761;SDS011;5433;50.862;4.320;2022-07-24T13:56:20;2.78;;;2.58;;
10761;SDS011;5433;50.862;4.320;2022-07-24T13:58:47;3.33;;;2.80;;
10761;SDS011;5433;50.862;4.320;2022-07-24T14:01:13;3.22;;;2.92;;
10761;SDS011;5433;50.862;4.320;2022-07-24T14:03:41;3.17;;;2.90;;
10761;SDS011;5433;50.862;4.320;2022-07-24T14:06:08;3.45;;;2.80;;
10761;SDS011;5433;50.862;4.320;2022-07-24T14:08:35;2.90;;;2.70;;
10761;SDS011;5433;50.862;4.320;2022-07-24T14:11:02;2.83;;;2.63;;
10761;SDS011;5433;50.862;4.320;2022-07-24T14:13:28;4.00;;;2.50;;
10761;SDS011;5433;50.862;4.320;2022-07-24T14:15:54;2.78;;;2.58;;
10761;SDS011;5433;50.862;4.320;2022-07-24T14:18:20;2.97;;;2.70;;
10761;SDS011;5433;50.862;4.320;2022-07-24T14:20:46;2.80;;;2.60;;
10761;SDS011;5433;50.862;4.320;2022-07-24T14:23:12;3.65;;;2.58;;
10761;SDS011;5433;50.862;4.320;2022-07-24T14:25:38;3.97;;;2.92;;
10761;SDS011;5433;50.862;4.320;2022-07-24T14:28:05;3.20;;;2.90;;
10761;SDS011;5433;50.862;4.320;2022-07-24T14:30:31;3.53;;;3.22;;
10761;SDS011;5433;50.862;4.320;2022-07-24T14:32:57;3.05;;;2.83;;
10761;SDS011;5433;50.862;4.320;2022-07-24T14:35:24;3.75;;;2.70;;
10761;SDS011;5433;50.862;4.320;2022-07-24T14:37:52;4.25;;;3.30;;
10761;SDS011;5433;50.862;4.320;2022-07-24T14:40:18;7.93;;;3.08;;
10761;SDS011;5433;50.862;4.320;2022-07-24T14:42:44;4.05;;;3.63;;
10761;SDS011;5433;50.862;4.320;2022-07-24T14:45:10;3.50;;;3.20;;
10761;SDS011;5433;50.862;4.320;2022-07-24T14:47:37;4.55;;;3.45;;
10761;SDS011;5433;50.862;4.320;2022-07-24T14:50:05;4.10;;;3.40;;
10761;SDS011;5433;50.862;4.320;2022-07-24T14:52:31;4.07;;;3.47;;
10761;SDS011;5433;50.862;4.320;2022-07-24T14:54:57;3.60;;;3.30;;
10761;SDS011;5433;50.862;4.320;2022-07-24T14:57:27;3.92;;;3.60;;
10761;SDS011;5433;50.862;4.320;2022-07-24T14:59:53;4.75;;;3.35;;
10761;SDS011;5433;50.862;4.320;2022-07-24T15:02:19;4.10;;;3.53;;
10761;SDS011;5433;50.862;4.320;2022-07-24T15:04:46;3.97;;;3.50;;
10761;SDS011;5433;50.862;4.320;2022-07-24T15:07:12;3.88;;;3.50;;
10761;SDS011;5433;50.862;4.320;2022-07-24T15:09:38;3.97;;;3.55;;
10761;SDS011;5433;50.862;4.320;2022-07-24T15:12:04;4.15;;;3.75;;
10761;SDS011;5433;50.862;4.320;2022-07-24T15:14:30;4.15;;;3.63;;